Pagina principale
METAR-TAF:

METAR-TAF

Aeroporti :

Zanjan, Iran

latitudine: 36-41N, longitudine: 048-29E, altezza: 1663 m

Osservazione

Il bollettino è stato emesso 3 ore e 45 minuti fa, alle 15:00 UTC
Vento 10 kt da est/nord-est
Temperature 2°C
Umidità 75%
Pressione 1020 hPa
Visibilità 10 km o più
Poco nuvoloso ad un'altezza di 2500 ft

METAR: OITZ 211500Z 07010KT 9999 FEW025 02/M02 Q1020

Ora: 22:15 (18:45 UTC)


TAF: mancante

Osservazioni e previsioni meteorologiche di più di 4000 aeroporti (messaggi METAR e TAF).

Le stazioni disponibili sono rappresentate dai dischi gialli e rossi sulla carta.

Puntare il mouse per vedere il nome della stazione.

Clicca sopra per visualizzare le osservazioni e previsioni meteorologiche.

Per cambiare la mappa : fare clic sui pulsanti verdi con una croce nera per ingrandire, il pulsante verde con un trattino per diminuire, o sulla freccia verde per le mappe adiacenti.


METAR-TAF: